Time;durP1;ratioP1;P1;durP2;ratioP2;P2;SDS_P1;SDS_P2;PMS_P1;PMS_P2;Temp;Humidity;BMP_temperature;BMP_pressure;BME280_temperature;BME280_humidity;BME280_pressure;Samples;Min_cycle;Max_cycle;Signal;HPM_P1;HPM_P2
2021/08/09 00:00:55;;;;;;;4.85;2.20;;;;;;;15.75;69.61;100032.53;2198241;40;20059;-78
2021/08/09 00:02:27;;;;;;;6.40;2.30;;;;;;;15.75;69.72;100030.72;2196497;40;20418;-79
2021/08/09 00:04:00;;;;;;;5.40;2.10;;;;;;;15.78;69.63;100028.66;2196357;40;20035;-80
2021/08/09 00:05:32;;;;;;;5.88;2.05;;;;;;;15.75;69.60;100032.53;2194280;40;20037;-79
2021/08/09 00:07:08;;;;;;;5.15;2.22;;;;;;;15.69;69.64;100035.97;2196877;40;20038;-79
2021/08/09 00:08:40;;;;;;;4.15;2.10;;;;;;;15.60;69.62;100048.63;2195784;40;20055;-80
2021/08/09 00:14:52;;;;;;;4.05;1.90;;;;;;;15.72;69.50;100039.13;2196914;40;20342;-78
2021/08/09 00:16:23;;;;;;;4.72;2.10;;;;;;;15.78;69.35;100042.97;2197862;40;20047;-81
2021/08/09 00:17:55;;;;;;;7.03;2.97;;;;;;;15.82;69.56;100035.38;2199163;40;20030;-80
2021/08/09 00:19:29;;;;;;;4.85;2.20;;;;;;;15.84;69.08;100036.91;2196538;40;20047;-79
2021/08/09 00:21:00;;;;;;;5.25;1.90;;;;;;;15.86;69.19;100034.03;2196275;40;20158;-79
2021/08/09 00:22:32;;;;;;;7.28;2.13;;;;;;;15.88;68.96;100040.06;2197103;40;20039;-79
2021/08/09 00:24:05;;;;;;;4.15;1.85;;;;;;;15.90;69.02;100038.03;2196623;40;20049;-79
2021/08/09 00:25:36;;;;;;;4.38;1.80;;;;;;;15.94;68.43;100038.50;2196949;40;20261;-79
2021/08/09 00:27:09;;;;;;;3.55;1.60;;;;;;;15.94;68.69;100035.81;2196762;40;20167;-79
2021/08/09 00:28:40;;;;;;;5.07;2.08;;;;;;;15.93;68.48;100029.59;2197464;40;20286;-79
2021/08/09 00:30:13;;;;;;;4.47;1.60;;;;;;;15.93;68.38;100035.00;2197024;40;20034;-78
2021/08/09 00:31:45;;;;;;;4.40;1.70;;;;;;;15.98;68.20;100029.88;2196440;40;20031;-79
2021/08/09 00:33:17;;;;;;;4.57;2.03;;;;;;;15.95;68.00;100029.41;2201257;40;20059;-79
2021/08/09 00:34:50;;;;;;;5.88;2.30;;;;;;;15.92;67.93;100027.09;2196162;40;20047;-79
2021/08/09 00:36:21;;;;;;;4.85;1.88;;;;;;;15.90;67.65;100028.09;2196079;40;20047;-79
2021/08/09 00:37:53;;;;;;;3.83;1.73;;;;;;;15.98;67.75;100027.19;2196532;40;20050;-78
2021/08/09 00:39:25;;;;;;;4.03;1.45;;;;;;;16.01;68.08;100028.72;2196660;40;20046;-79
2021/08/09 00:40:57;;;;;;;3.65;1.60;;;;;;;16.00;67.93;100027.03;2195867;40;20035;-78
2021/08/09 00:42:29;;;;;;;3.45;1.40;;;;;;;15.96;68.28;100025.69;2196761;40;20026;-79
2021/08/09 00:44:00;;;;;;;5.10;1.65;;;;;;;15.94;68.57;100022.34;2196897;40;20063;-78
2021/08/09 00:45:32;;;;;;;3.63;1.80;;;;;;;15.94;68.62;100022.34;2197845;40;20061;-78
2021/08/09 00:47:05;;;;;;;4.65;1.90;;;;;;;15.89;68.57;100018.34;2196822;40;20039;-78
2021/08/09 00:48:36;;;;;;;5.05;2.00;;;;;;;15.87;68.91;100024.94;2197554;40;20031;-79
2021/08/09 00:50:18;;;;;;;4.97;1.80;;;;;;;15.85;68.64;100024.28;2199624;40;20461;-79
2021/08/09 00:51:55;;;;;;;8.10;3.05;;;;;;;15.80;68.99;100021.22;2197470;40;20039;-79
2021/08/09 00:53:41;;;;;;;4.38;1.92;;;;;;;15.81;68.87;100029.16;2191184;40;20031;-79
2021/08/09 00:55:13;;;;;;;3.50;1.60;;;;;;;15.82;68.99;100025.41;2191399;40;20047;-80
2021/08/09 00:56:45;;;;;;;4.93;1.75;;;;;;;15.88;68.92;100035.53;2191417;40;20046;-79
2021/08/09 00:58:17;;;;;;;5.95;1.88;;;;;;;15.89;68.86;100028.28;2193441;40;20414;-78
2021/08/09 00:59:49;;;;;;;4.32;1.80;;;;;;;15.87;68.99;100033.03;2197743;40;20035;-80
2021/08/09 01:01:21;;;;;;;4.95;1.90;;;;;;;15.83;69.29;100026.28;2191288;40;20039;-79
2021/08/09 01:02:53;;;;;;;3.40;1.50;;;;;;;15.83;69.10;100020.88;2191646;40;20035;-80
2021/08/09 01:04:24;;;;;;;5.68;1.98;;;;;;;15.87;69.31;100027.63;2194750;40;20347;-79
2021/08/09 01:05:58;;;;;;;5.93;2.15;;;;;;;15.89;69.05;100022.88;2196152;40;20031;-80
2021/08/09 01:07:36;;;;;;;3.75;1.40;;;;;;;15.90;69.21;100022.72;2196082;40;20280;-80
2021/08/09 01:09:15;;;;;;;4.47;1.88;;;;;;;15.93;69.44;100023.34;2196309;40;20543;-79
2021/08/09 01:10:53;;;;;;;5.38;1.95;;;;;;;15.91;69.42;100023.53;2196614;40;20441;-79
2021/08/09 01:12:31;;;;;;;4.43;1.98;;;;;;;15.88;69.47;100019.34;2196881;40;20402;-79
2021/08/09 01:16:38;;;;;;;7.38;1.77;;;;;;;15.94;69.72;100008.84;2190486;40;20371;-79
2021/08/09 01:18:13;;;;;;;5.50;1.85;;;;;;;15.93;69.70;100010.72;2190434;40;20036;-79
2021/08/09 01:20:09;;;;;;;5.05;1.80;;;;;;;15.88;69.76;100013.09;2193949;40;20042;-79
2021/08/09 01:21:42;;;;;;;5.45;1.80;;;;;;;15.84;70.00;100011.81;2190126;40;20031;-79
2021/08/09 01:23:36;;;;;;;4.57;2.10;;;;;;;15.83;69.87;100015.50;2190139;40;20315;-79
2021/08/09 01:25:17;;;;;;;5.28;1.80;;;;;;;15.81;70.32;100021.06;2190259;40;20392;-80
2021/08/09 01:26:53;;;;;;;;;;;;;;;15.77;70.55;100029.69;2198577;40;20131;-79
2021/08/09 01:28:30;;;;;;;5.82;1.90;;;;;;;15.75;70.67;100029.84;2190621;40;19938;-79
2021/08/09 01:30:08;;;;;;;4.80;2.15;;;;;;;15.69;70.99;100026.00;2194993;40;20035;-79
2021/08/09 01:31:43;;;;;;;3.70;1.77;;;;;;;15.66;71.40;100026.41;2196486;40;20438;-79
2021/08/09 01:33:17;;;;;;;5.00;2.05;;;;;;;15.68;71.81;100029.72;2196290;40;20035;-79
2021/08/09 01:34:50;;;;;;;3.78;1.80;;;;;;;15.68;71.88;100028.91;2196897;40;20031;-78
2021/08/09 01:36:23;;;;;;;5.30;2.33;;;;;;;15.66;71.86;100029.09;2195898;40;20443;-78
2021/08/09 01:45:23;;;;;;;5.78;2.28;;;;;;;15.46;70.84;100041.34;2190502;40;20122;-78
2021/08/09 01:46:57;;;;;;;3.78;1.70;;;;;;;15.46;70.75;100047.53;2190380;40;20032;-79
2021/08/09 01:48:30;;;;;;;4.05;1.90;;;;;;;15.46;70.68;100052.94;2190858;40;20031;-79
2021/08/09 01:50:02;;;;;;;5.45;2.08;;;;;;;15.47;70.44;100054.59;2190946;40;20046;-80
2021/08/09 01:51:35;;;;;;;5.38;1.73;;;;;;;15.47;70.47;100048.41;2190596;40;20050;-80
2021/08/09 01:53:08;;;;;;;5.20;1.80;;;;;;;15.47;70.46;100054.59;2190243;40;20035;-79
2021/08/09 01:54:41;;;;;;;5.68;1.90;;;;;;;15.48;70.35;100050.06;2190055;40;20032;-80
2021/08/09 01:56:17;;;;;;;4.65;1.83;;;;;;;15.51;70.05;100049.69;2190572;40;20059;-79
2021/08/09 01:57:50;;;;;;;4.20;1.67;;;;;;;15.53;69.89;100058.47;2190668;40;20047;-79
2021/08/09 01:59:22;;;;;;;4.13;1.52;;;;;;;15.53;70.00;100053.06;2190783;40;20292;-79
2021/08/09 02:00:54;;;;;;;6.22;2.05;;;;;;;15.49;69.75;100049.06;2190451;40;20043;-79
2021/08/09 02:02:28;;;;;;;3.97;1.83;;;;;;;15.40;69.96;100051.78;2190768;40;20396;-80
2021/08/09 02:04:03;;;;;;;4.47;1.70;;;;;;;15.41;70.00;100056.16;2190940;40;20043;-79
2021/08/09 02:08:50;;;;;;;4.82;1.83;;;;;;;15.37;69.71;100054.84;2190713;40;20343;-79
2021/08/09 02:10:52;;;;;;;4.32;2.08;;;;;;;15.27;70.13;100056.91;2190828;40;20034;-79
2021/08/09 02:12:43;;;;;;;;;;;;;;;15.21;70.33;100061.13;2191325;40;20035;-80
2021/08/09 02:16:16;;;;;;;5.15;1.77;;;;;;;15.09;70.21;100070.59;2195465;40;20431;-80
2021/08/09 02:17:58;;;;;;;5.55;2.05;;;;;;;15.07;70.37;100069.94;2196815;40;20039;-79
2021/08/09 02:19:34;;;;;;;6.57;2.15;;;;;;;15.04;70.59;100071.13;2197075;40;20419;-80
2021/08/09 02:21:09;;;;;;;4.00;2.00;;;;;;;15.05;70.85;100067.41;2196983;40;20596;-80
2021/08/09 02:22:45;;;;;;;4.65;2.10;;;;;;;15.07;71.08;100062.72;2197256;40;20037;-80
2021/08/09 02:24:22;;;;;;;4.38;2.13;;;;;;;15.09;71.59;100067.91;2196182;40;20426;-80
2021/08/09 02:25:57;;;;;;;6.85;2.60;;;;;;;15.11;72.28;100072.09;2197168;40;20038;-80
2021/08/09 02:27:36;;;;;;;10.35;2.85;;;;;;;15.10;72.43;100077.66;2192862;40;20047;-82
2021/08/09 02:29:18;;;;;;;5.95;2.70;;;;;;;15.07;72.62;100070.78;2190916;40;20301;-80
2021/08/09 02:30:54;;;;;;;6.35;2.70;;;;;;;15.03;73.08;100063.22;2190997;40;20031;-80
2021/08/09 02:32:29;;;;;;;7.43;2.70;;;;;;;15.01;73.44;100073.31;2184886;40;20443;-80
2021/08/09 02:34:05;;;;;;;6.22;2.30;;;;;;;15.02;73.35;100069.63;2186315;40;20132;-80
2021/08/09 02:35:37;;;;;;;5.95;2.88;;;;;;;15.04;73.59;100068.44;2196726;40;20035;-80
2021/08/09 02:37:10;;;;;;;5.15;2.50;;;;;;;15.06;73.60;100077.19;2197023;40;20050;-80
2021/08/09 02:38:43;;;;;;;6.13;2.28;;;;;;;15.07;73.58;100073.47;2196490;40;20043;-79
2021/08/09 02:40:15;;;;;;;5.72;2.55;;;;;;;15.09;73.57;100076.84;2193686;40;20367;-80
2021/08/09 02:41:48;;;;;;;9.07;2.70;;;;;;;15.08;73.44;100079.69;2184846;40;20044;-80
2021/08/09 02:43:20;;;;;;;7.97;2.78;;;;;;;15.07;73.78;100081.56;2185248;40;20040;-80
2021/08/09 02:44:53;;;;;;;7.60;2.58;;;;;;;15.08;73.81;100085.94;2185344;40;20035;-80
2021/08/09 02:46:26;;;;;;;6.07;2.78;;;;;;;15.05;73.88;100083.56;2184852;40;20040;-80
2021/08/09 02:47:59;;;;;;;8.90;2.88;;;;;;;15.03;74.14;100084.75;2195911;40;20031;-80
2021/08/09 02:49:33;;;;;;;6.97;2.58;;;;;;;15.01;73.98;100082.25;2196849;40;20039;-80
2021/08/09 02:51:06;;;;;;;7.40;3.00;;;;;;;14.98;74.13;100082.59;2189616;40;20303;-80
2021/08/09 02:52:40;;;;;;;10.32;3.88;;;;;;;14.88;74.82;100073.88;2190618;40;20058;-80
2021/08/09 02:54:14;;;;;;;6.60;3.30;;;;;;;14.85;75.15;100080.44;2184945;40;20138;-80
2021/08/09 02:55:51;;;;;;;9.63;2.95;;;;;;;14.86;74.92;100078.56;2186498;40;20046;-80
2021/08/09 02:57:25;;;;;;;7.45;3.08;;;;;;;14.82;75.24;100078.09;2192381;40;20035;-80
2021/08/09 02:58:57;;;;;;;8.52;2.80;;;;;;;14.82;75.25;100078.09;2197022;40;20035;-81
2021/08/09 03:00:29;;;;;;;10.57;3.28;;;;;;;14.81;75.20;100076.41;2184593;40;20046;-80
2021/08/09 03:02:02;;;;;;;4.68;2.35;;;;;;;14.81;75.29;100082.63;2185747;40;20047;-80
2021/08/09 03:03:36;;;;;;;7.80;2.67;;;;;;;14.81;75.40;100076.41;2190685;40;20031;-81
2021/08/09 03:05:12;;;;;;;8.15;2.80;;;;;;;14.81;75.43;100074.56;2191696;40;20054;-80
2021/08/09 03:06:44;;;;;;;7.90;3.33;;;;;;;14.80;75.54;100080.09;2185685;40;20047;-81
2021/08/09 03:08:18;;;;;;;6.00;2.70;;;;;;;14.77;75.41;100070.53;2185389;40;20432;-80
2021/08/09 03:09:50;;;;;;;8.38;2.67;;;;;;;14.77;75.48;100075.91;2188097;40;20419;-80
2021/08/09 03:11:22;;;;;;;8.65;3.50;;;;;;;14.72;75.39;100078.28;2228983;23;20035;-76
2021/08/09 03:12:58;;;;;;;12.38;5.28;;;;;;;14.68;75.53;100065.34;2195828;40;20328;-77
2021/08/09 03:14:31;;;;;;;8.23;3.80;;;;;;;14.67;75.91;100069.88;2196259;40;20087;-77
2021/08/09 03:16:03;;;;;;;6.70;3.10;;;;;;;14.66;75.84;100065.47;2194334;40;20109;-78
2021/08/09 03:17:34;;;;;;;9.38;3.33;;;;;;;14.64;75.65;100064.81;2196386;40;20042;-79
2021/08/09 03:19:06;;;;;;;8.68;3.20;;;;;;;14.62;75.99;100064.16;2195402;40;20042;-77
2021/08/09 03:20:40;;;;;;;7.78;3.13;;;;;;;14.52;75.94;100069.69;2196056;40;20387;-77
2021/08/09 03:22:12;;;;;;;6.93;2.75;;;;;;;14.46;76.35;100068.53;2190501;40;20042;-78
2021/08/09 03:23:44;;;;;;;7.65;3.17;;;;;;;14.47;76.28;100069.38;2186904;40;20032;-77
2021/08/09 03:25:15;;;;;;;8.35;3.25;;;;;;;14.47;76.30;100075.59;2186728;40;20041;-78
2021/08/09 03:26:49;;;;;;;7.53;2.70;;;;;;;14.50;76.06;100069.88;2190665;40;20059;-78
2021/08/09 03:28:21;;;;;;;5.25;2.15;;;;;;;14.53;75.90;100065.16;2188931;40;20042;-78
2021/08/09 03:29:53;;;;;;;11.02;2.97;;;;;;;14.55;76.07;100063.16;2190096;40;20046;-77
2021/08/09 03:31:24;;;;;;;8.32;2.70;;;;;;;14.56;75.99;100067.50;2191609;40;20043;-78
2021/08/09 03:32:56;;;;;;;6.45;2.20;;;;;;;14.55;75.94;100063.97;2190120;40;20295;-78
2021/08/09 03:34:29;;;;;;;8.65;2.65;;;;;;;14.56;75.78;100068.34;2194226;40;20039;-79
2021/08/09 03:36:02;;;;;;;6.88;2.50;;;;;;;14.56;75.58;100067.50;2190147;40;20038;-77
2021/08/09 03:37:34;;;;;;;4.95;2.25;;;;;;;14.54;75.72;100072.22;2189409;40;20039;-78
2021/08/09 03:39:06;;;;;;;5.25;2.40;;;;;;;14.51;75.74;100065.31;2190232;40;20081;-77
2021/08/09 03:40:38;;;;;;;9.38;3.83;;;;;;;14.55;75.74;100071.22;2193606;40;20050;-77
2021/08/09 03:42:10;;;;;;;6.28;3.03;;;;;;;14.50;75.76;100072.56;2190859;40;20043;-76
2021/08/09 03:43:43;;;;;;;7.93;2.92;;;;;;;14.47;76.12;100075.59;2192731;40;20039;-77
2021/08/09 03:45:15;;;;;;;9.43;3.20;;;;;;;14.46;76.05;100079.28;2190654;40;20080;-77
2021/08/09 03:46:47;;;;;;;7.80;3.80;;;;;;;14.39;76.19;100080.16;2192030;40;20040;-78
2021/08/09 03:48:19;;;;;;;9.50;3.72;;;;;;;14.37;76.33;100082.97;2190230;40;20043;-76
2021/08/09 03:49:50;;;;;;;10.77;3.40;;;;;;;14.34;76.40;100076.09;2190321;40;20047;-79
2021/08/09 03:51:24;;;;;;;8.73;3.40;;;;;;;14.37;76.40;100082.97;2192462;40;20466;-77
2021/08/09 03:52:56;;;;;;;5.13;2.80;;;;;;;14.37;76.28;100084.84;2191008;40;20047;-75
2021/08/09 03:54:28;;;;;;;9.38;3.20;;;;;;;14.35;76.35;100088.53;2192696;40;20040;-77
2021/08/09 03:56:00;;;;;;;8.13;3.08;;;;;;;14.35;76.19;100082.34;2189851;40;20392;-78
2021/08/09 03:57:32;;;;;;;10.07;2.88;;;;;;;14.31;76.26;100084.50;2189870;40;20059;-79
2021/08/09 03:59:03;;;;;;;9.07;3.47;;;;;;;14.32;76.31;100077.28;2186050;40;20040;-78
2021/08/09 04:00:37;;;;;;;6.22;2.95;;;;;;;14.28;76.46;100075.94;2189999;40;20043;-78
2021/08/09 04:02:14;;;;;;;5.53;2.97;;;;;;;14.28;76.41;100075.94;2190094;40;20079;-77
2021/08/09 04:03:46;;;;;;;8.73;3.40;;;;;;;14.27;76.38;100074.25;2191200;40;20039;-78
2021/08/09 04:05:17;;;;;;;9.55;3.05;;;;;;;14.24;76.54;100074.59;2190587;40;20404;-78
2021/08/09 04:06:51;;;;;;;9.10;3.72;;;;;;;14.18;76.45;100076.09;2194636;40;20047;-77
2021/08/09 04:08:22;;;;;;;9.38;3.78;;;;;;;14.16;76.57;100084.34;2190975;40;20430;-77
2021/08/09 04:09:55;;;;;;;8.27;3.10;;;;;;;14.17;76.61;100083.31;2191888;40;20039;-77
2021/08/09 04:11:27;;;;;;;7.03;2.88;;;;;;;14.19;76.79;100084.00;2195405;40;20046;-77
2021/08/09 04:12:58;;;;;;;7.13;2.80;;;;;;;14.15;76.59;100090.72;2196367;40;20035;-77
2021/08/09 04:14:30;;;;;;;8.07;3.47;;;;;;;14.11;76.61;100092.06;2195140;40;20034;-78
2021/08/09 04:16:02;;;;;;;10.98;4.05;;;;;;;14.05;76.82;100081.97;2189830;40;20399;-77
2021/08/09 04:17:34;;;;;;;9.15;3.38;;;;;;;14.03;77.07;100082.13;2198304;40;20030;-78
2021/08/09 04:19:06;;;;;;;6.82;2.97;;;;;;;14.06;76.82;100080.97;2196291;40;20464;-77
2021/08/09 04:20:38;;;;;;;6.05;3.15;;;;;;;14.08;77.03;100078.94;2195964;40;20039;-76
2021/08/09 04:22:11;;;;;;;7.57;2.75;;;;;;;14.11;76.93;100086.69;2195675;40;20047;-76
2021/08/09 04:23:43;;;;;;;9.02;3.40;;;;;;;14.13;76.62;100086.50;2198280;40;20045;-79
2021/08/09 04:25:14;;;;;;;8.23;3.00;;;;;;;14.13;76.84;100090.06;2204235;40;20069;-77
2021/08/09 04:26:46;;;;;;;7.72;2.95;;;;;;;14.14;76.77;100094.41;2202161;40;20046;-78
2021/08/09 04:28:18;;;;;;;5.78;2.80;;;;;;;14.16;76.50;100094.25;2198445;40;20035;-78
2021/08/09 04:29:49;;;;;;;15.10;3.75;;;;;;;14.17;76.47;100083.31;2199981;40;20042;-76
2021/08/09 04:31:21;;;;;;;10.48;3.83;;;;;;;14.19;76.57;100080.47;2198763;40;20038;-76
2021/08/09 04:32:53;;;;;;;8.27;3.90;;;;;;;14.17;76.45;100083.31;2198821;40;20062;-78
2021/08/09 04:34:25;;;;;;;10.07;3.38;;;;;;;14.12;76.52;100088.38;2198336;40;20411;-79
2021/08/09 04:35:57;;;;;;;9.35;3.80;;;;;;;14.08;76.60;100076.25;2200447;40;20042;-77
2021/08/09 04:37:31;;;;;;;10.43;3.38;;;;;;;14.09;76.75;100075.25;2199695;40;20209;-78
2021/08/09 04:39:03;;;;;;;7.10;3.10;;;;;;;14.09;76.49;100069.03;2198762;40;20277;-77
2021/08/09 04:40:36;;;;;;;8.98;4.15;;;;;;;14.05;76.80;100079.28;2199109;40;20037;-77
2021/08/09 04:42:07;;;;;;;11.57;3.13;;;;;;;13.97;76.99;100071.22;2199588;40;20319;-79
2021/08/09 04:43:41;;;;;;;8.77;3.45;;;;;;;13.93;77.15;100073.41;2199528;40;20035;-79
2021/08/09 04:45:13;;;;;;;5.80;3.20;;;;;;;13.95;77.41;100067.88;2199341;40;20031;-77
2021/08/09 04:46:44;;;;;;;6.53;2.90;;;;;;;13.99;77.26;100066.50;2199018;40;20031;-78
2021/08/09 04:48:16;;;;;;;8.35;3.63;;;;;;;14.05;77.10;100065.84;2199251;40;20053;-78
2021/08/09 04:49:48;;;;;;;5.35;2.72;;;;;;;14.06;77.11;100061.31;2196769;40;20031;-78
2021/08/09 04:51:19;;;;;;;7.80;3.17;;;;;;;14.09;76.93;100063.66;2200104;40;20049;-78
2021/08/09 04:52:53;;;;;;;13.73;3.65;;;;;;;14.13;76.94;100065.00;2200064;40;20041;-79
2021/08/09 04:54:24;;;;;;;4.95;2.55;;;;;;;14.15;76.83;100058.47;2194431;40;20040;-79
2021/08/09 04:55:56;;;;;;;6.95;3.08;;;;;;;14.19;76.41;100067.88;2197993;40;20050;-78
2021/08/09 04:57:28;;;;;;;7.00;2.83;;;;;;;14.20;76.33;100069.53;2199502;40;20042;-78
2021/08/09 04:59:01;;;;;;;8.18;3.28;;;;;;;14.24;76.26;100069.22;2200024;40;20058;-79
2021/08/09 05:00:33;;;;;;;8.98;4.03;;;;;;;14.24;76.12;100072.75;2200028;40;20031;-77
2021/08/09 05:02:04;;;;;;;7.00;3.08;;;;;;;14.27;76.00;100069.72;2202143;40;20058;-79
2021/08/09 05:03:39;;;;;;;8.38;2.97;;;;;;;14.29;76.00;100083.00;2199479;40;20038;-80
2021/08/09 05:05:11;;;;;;;9.27;3.15;;;;;;;14.31;75.90;100076.44;2199103;40;20097;-77
2021/08/09 05:06:43;;;;;;;6.57;2.67;;;;;;;14.30;76.08;100082.84;2196267;40;20054;-77
2021/08/09 05:08:18;;;;;;;6.32;3.13;;;;;;;14.30;76.02;100068.53;2197347;40;20837;-77
2021/08/09 05:09:49;;;;;;;6.95;2.50;;;;;;;14.31;75.95;100078.28;2198096;40;20038;-78
2021/08/09 05:11:21;;;;;;;6.85;3.17;;;;;;;14.28;76.03;100081.31;2200740;40;20069;-77
2021/08/09 05:12:53;;;;;;;7.30;2.60;;;;;;;14.28;75.88;100075.94;2196587;40;20038;-78
2021/08/09 05:14:25;;;;;;;8.65;2.80;;;;;;;14.31;75.92;100070.22;2196341;40;20309;-77
2021/08/09 05:15:56;;;;;;;7.35;2.78;;;;;;;14.31;75.63;100070.22;2197618;40;20078;-78
2021/08/09 05:17:28;;;;;;;7.60;2.60;;;;;;;14.32;75.75;100066.53;2196095;40;20081;-78
2021/08/09 05:19:02;;;;;;;5.57;2.53;;;;;;;14.35;75.57;100068.88;2196264;40;20328;-78
2021/08/09 05:20:34;;;;;;;7.18;2.92;;;;;;;14.38;75.39;100068.53;2196427;40;20046;-78
2021/08/09 05:22:06;;;;;;;9.60;3.38;;;;;;;14.40;75.42;100068.38;2195717;40;20031;-76
2021/08/09 05:23:39;;;;;;;9.60;2.70;;;;;;;14.37;75.34;100077.59;2190435;40;20451;-77
2021/08/09 05:25:11;;;;;;;10.93;3.35;;;;;;;14.39;75.38;100078.28;2193711;40;20049;-78
2021/08/09 05:26:43;;;;;;;8.05;3.40;;;;;;;14.41;75.60;100076.28;2196752;40;20035;-77
2021/08/09 05:28:15;;;;;;;7.03;2.60;;;;;;;14.47;75.19;100086.34;2198069;40;20430;-77
2021/08/09 05:29:47;;;;;;;7.50;2.33;;;;;;;14.52;75.31;100080.44;2190345;40;20043;-78
2021/08/09 05:31:19;;;;;;;10.57;3.40;;;;;;;14.56;75.05;100081.81;2199875;40;20878;-77
2021/08/09 05:32:51;;;;;;;10.88;3.50;;;;;;;14.55;75.05;100098.94;2197186;40;20042;-77
2021/08/09 05:34:23;;;;;;;5.22;2.88;;;;;;;14.58;74.91;100100.47;2187525;40;20091;-77
2021/08/09 05:35:54;;;;;;;9.63;3.08;;;;;;;14.62;75.08;100107.19;2197895;40;20058;-78
2021/08/09 05:37:27;;;;;;;7.85;3.55;;;;;;;14.66;74.94;100105.81;2196482;40;20031;-76
2021/08/09 05:39:01;;;;;;;9.52;3.22;;;;;;;14.71;74.95;100103.50;2195845;40;20057;-77
2021/08/09 05:40:36;;;;;;;10.00;3.85;;;;;;;14.75;74.85;100099.44;2196426;40;20046;-78
2021/08/09 05:42:08;;;;;;;10.85;2.55;;;;;;;14.78;74.62;100099.13;2196831;40;20062;-77
2021/08/09 05:43:40;;;;;;;7.95;3.22;;;;;;;14.84;74.61;100097.59;2196261;40;20066;-78
2021/08/09 05:45:12;;;;;;;12.77;3.92;;;;;;;14.89;74.44;100097.09;2198413;40;20045;-77
2021/08/09 05:46:49;;;;;;;9.13;3.30;;;;;;;14.92;74.17;100092.19;2201573;40;20262;-77
2021/08/09 05:48:21;;;;;;;17.45;4.65;;;;;;;14.91;74.14;100092.38;2197556;40;20065;-78
2021/08/09 05:49:53;;;;;;;7.10;2.88;;;;;;;14.94;74.18;100092.00;2196084;40;20039;-78
2021/08/09 05:51:25;;;;;;;8.10;3.03;;;;;;;15.00;73.98;100101.25;2195420;40;20857;-76
2021/08/09 05:52:57;;;;;;;8.70;2.75;;;;;;;15.05;73.64;100091.66;2201892;40;20043;-78
2021/08/09 05:54:30;;;;;;;6.43;2.50;;;;;;;15.11;73.26;100093.63;2197795;40;20055;-77
2021/08/09 05:56:02;;;;;;;7.90;2.80;;;;;;;15.17;72.82;100096.66;2196097;40;20039;-76
2021/08/09 05:57:34;;;;;;;7.35;3.63;;;;;;;15.23;72.74;100091.44;2196330;40;20430;-77
2021/08/09 05:59:06;;;;;;;9.50;4.40;;;;;;;15.29;72.50;100087.19;2200975;40;20450;-78
2021/08/09 06:00:37;;;;;;;11.07;3.83;;;;;;;15.29;72.53;100084.50;2198716;40;20328;-78
2021/08/09 06:02:09;;;;;;;7.90;3.50;;;;;;;15.29;72.40;100085.34;2196466;40;20043;-77
2021/08/09 06:03:41;;;;;;;9.93;3.20;;;;;;;15.32;72.32;100091.41;2194239;40;20039;-76
2021/08/09 06:05:14;;;;;;;8.48;3.35;;;;;;;15.34;72.06;100098.28;2195887;40;20065;-78
2021/08/09 06:06:46;;;;;;;7.07;3.13;;;;;;;15.40;71.85;100097.56;2195748;40;20062;-75
2021/08/09 06:08:18;;;;;;;11.05;3.58;;;;;;;15.48;71.34;100093.19;2200386;40;20035;-77
2021/08/09 06:09:51;;;;;;;8.85;3.33;;;;;;;15.55;71.11;100099.53;2198360;40;20038;-78
2021/08/09 06:11:23;;;;;;;6.50;2.60;;;;;;;15.62;71.21;100088.91;2190806;40;20054;-78
2021/08/09 06:12:54;;;;;;;6.03;3.20;;;;;;;15.71;70.58;100098.63;2190242;40;20331;-77
2021/08/09 06:14:27;;;;;;;7.40;3.25;;;;;;;15.76;70.79;100090.81;2198898;40;20037;-79
2021/08/09 06:15:59;;;;;;;6.47;3.22;;;;;;;15.82;70.70;100086.59;2197563;40;20299;-77
2021/08/09 06:17:32;;;;;;;10.75;3.33;;;;;;;15.86;70.15;100091.47;2197248;40;20035;-78
2021/08/09 06:19:04;;;;;;;6.45;3.13;;;;;;;15.95;69.96;100083.31;2196138;40;20043;-77
2021/08/09 06:20:37;;;;;;;11.65;3.83;;;;;;;15.98;69.92;100091.88;2196286;40;20332;-78
2021/08/09 06:22:09;;;;;;;10.63;3.72;;;;;;;16.00;69.62;100084.47;2196326;40;20992;-77
2021/08/09 06:23:41;;;;;;;6.53;3.08;;;;;;;16.05;69.56;100084.78;2196867;40;20049;-78
2021/08/09 06:25:14;;;;;;;5.70;2.10;;;;;;;16.13;68.86;100093.81;2194462;40;20047;-75
2021/08/09 06:26:46;;;;;;;6.53;2.10;;;;;;;16.19;68.15;100082.31;2195186;40;20035;-76
2021/08/09 06:28:19;;;;;;;5.68;2.10;;;;;;;16.27;67.44;100076.84;2201962;40;20061;-75
2021/08/09 06:29:50;;;;;;;4.00;1.63;;;;;;;16.35;67.20;100079.47;2197447;40;20047;-75
2021/08/09 06:31:22;;;;;;;4.88;1.40;;;;;;;16.44;66.36;100072.16;2195612;40;20039;-76
2021/08/09 06:32:54;;;;;;;11.10;1.80;;;;;;;16.50;65.70;100066.00;2195172;40;20391;-75
2021/08/09 06:34:26;;;;;;;4.22;1.60;;;;;;;16.59;64.64;100064.09;2196024;40;20032;-75
2021/08/09 06:35:58;;;;;;;4.15;1.33;;;;;;;16.66;64.09;100058.81;2195334;40;20059;-76
2021/08/09 06:37:29;;;;;;;5.63;1.70;;;;;;;16.72;63.65;100052.66;2198659;40;20031;-76
2021/08/09 06:39:02;;;;;;;3.97;1.70;;;;;;;16.80;63.60;100057.13;2199184;40;20413;-77
2021/08/09 06:40:35;;;;;;;3.50;1.33;;;;;;;16.88;63.16;100062.44;2195650;40;20370;-77
2021/08/09 06:42:08;;;;;;;7.00;1.83;;;;;;;16.96;63.07;100059.69;2195492;40;20027;-75
2021/08/09 06:43:39;;;;;;;5.10;1.50;;;;;;;17.00;62.80;100055.56;2201035;40;20044;-77
2021/08/09 06:45:12;;;;;;;4.82;1.60;;;;;;;17.03;62.43;100058.91;2196721;40;20051;-76
2021/08/09 06:46:43;;;;;;;4.05;1.65;;;;;;;17.10;62.46;100057.13;2196177;40;20063;-76
2021/08/09 06:48:15;;;;;;;3.78;1.38;;;;;;;17.13;61.87;100052.22;2197000;40;20349;-75
2021/08/09 06:49:48;;;;;;;4.15;1.52;;;;;;;17.22;61.67;100055.66;2197345;40;20041;-77
2021/08/09 06:51:19;;;;;;;4.38;1.30;;;;;;;17.31;61.50;100056.41;2195956;40;20054;-78
2021/08/09 06:52:51;;;;;;;4.00;1.33;;;;;;;17.36;61.36;100058.53;2197460;40;20042;-79
2021/08/09 06:54:24;;;;;;;5.38;1.38;;;;;;;17.45;60.93;100063.63;2192226;40;20261;-78
2021/08/09 06:55:58;;;;;;;3.92;1.63;;;;;;;17.53;60.79;100065.38;2197371;40;20035;-78
2021/08/09 06:57:29;;;;;;;4.45;1.20;;;;;;;17.54;60.58;100061.66;2202145;40;20054;-76
2021/08/09 06:59:01;;;;;;;3.75;1.48;;;;;;;17.54;60.40;100061.66;2199675;40;24238;-78
2021/08/09 07:00:33;;;;;;;4.05;1.48;;;;;;;17.54;60.22;100071.63;2195589;40;20031;-78
2021/08/09 07:02:07;;;;;;;5.03;1.50;;;;;;;17.58;60.20;100072.91;2197347;40;20654;-76
2021/08/09 07:03:38;;;;;;;5.93;1.33;;;;;;;17.65;60.39;100078.41;2202490;40;20053;-75
2021/08/09 07:05:10;;;;;;;4.85;1.38;;;;;;;17.72;59.95;100079.31;2197562;40;20322;-76
2021/08/09 07:06:42;;;;;;;4.15;1.17;;;;;;;17.76;59.99;100069.78;2196071;40;20035;-77
2021/08/09 07:08:15;;;;;;;4.10;1.38;;;;;;;17.82;59.58;100070.88;2198510;40;20038;-78
2021/08/09 07:09:47;;;;;;;4.25;1.33;;;;;;;17.89;59.74;100071.81;2197153;40;20057;-76
2021/08/09 07:11:22;;;;;;;4.30;1.50;;;;;;;17.98;59.49;100073.38;2186996;40;20046;-76
2021/08/09 07:12:54;;;;;;;2.97;1.10;;;;;;;18.06;59.03;100077.81;2187136;40;20032;-78
2021/08/09 07:14:26;;;;;;;5.47;1.70;;;;;;;18.10;58.90;100068.28;2185833;40;20076;-79
2021/08/09 07:16:00;;;;;;;5.80;1.85;;;;;;;18.19;58.56;100069.84;2186568;40;20036;-77
2021/08/09 07:17:39;;;;;;;6.53;1.45;;;;;;;18.28;58.35;100069.69;2184201;40;20036;-78
2021/08/09 07:19:12;;;;;;;3.83;1.33;;;;;;;18.37;58.13;100071.22;2185030;40;20047;-76
2021/08/09 07:20:43;;;;;;;3.60;1.40;;;;;;;18.47;57.93;100071.72;2184547;40;20467;-76
2021/08/09 07:22:15;;;;;;;3.17;1.20;;;;;;;18.57;57.74;100074.09;2186470;40;20051;-77
2021/08/09 07:23:47;;;;;;;6.13;1.20;;;;;;;18.61;57.42;100074.56;2186255;40;20059;-77
2021/08/09 07:25:20;;;;;;;4.50;1.30;;;;;;;18.74;57.22;100079.22;2184399;40;20031;-76
2021/08/09 07:26:53;;;;;;;3.65;1.30;;;;;;;18.85;57.01;100068.66;2189703;40;20036;-77
2021/08/09 07:28:25;;;;;;;5.03;1.40;;;;;;;18.99;56.64;100072.31;2182327;40;20032;-76
2021/08/09 07:29:56;;;;;;;3.33;1.20;;;;;;;19.12;56.31;100074.25;2177967;40;20063;-75
2021/08/09 07:31:28;;;;;;;4.93;1.80;;;;;;;19.25;56.37;100075.38;2184891;40;20297;-76
2021/08/09 07:33:00;;;;;;;3.55;1.10;;;;;;;19.36;55.96;100072.09;2186589;40;20032;-76